CYPD

Port Hawkesbury Airport

Port Hawkesbury, Nova Scotia, Canada
METAR CYPD 241100Z AUTO 01004KT 340V050 9SM BKN060 06/00 A3041 RMK SLP304
Observed Flight Rules
Sep-24 @ 11:00 UTC (33 minutes ago) Visual Flight Rules
Wind Visibility Clouds
10° at 4 knots 9 miles
  • Broken at 6,000' AGL
Temperatures Readings
Current 6°C / 43°F
Dewpoint 0°C / 32°F
Humidity 66%
Altimeter 30.41" Hg
Pressure 1030.4 hPa
Elevation 114
METAR CYPD 241100Z AUTO 01004KT 340V050 9SM BKN060 06/00 A3041 RMK SLP304
Observed Flight Rules
Sep-24 @ 11:00 UTC
(33 minutes ago)
VFR
Wind Visibility
10° at 4 knots 9 miles
Clouds
  • Broken at 6,000' AGL
Temperature Dewpoint
6°C / 43°F 0°C / 32°F
Humidity Altimeter Pressure
66% 30.41" Hg 1030.4 hPa